createdAt,value
2017-07-20T00:01:41.593Z,74.30
2017-07-20T00:04:09.917Z,74.50
2017-07-20T00:06:38.299Z,74.90
2017-07-20T00:09:06.649Z,75.80
2017-07-20T00:11:34.936Z,77.10
2017-07-20T00:14:03.248Z,78.90
2017-07-20T00:16:31.665Z,80.60
2017-07-20T00:18:59.995Z,81.10
2017-07-20T00:21:28.331Z,82.50
2017-07-20T00:23:56.635Z,83.20
2017-07-20T00:26:25.309Z,84.20
2017-07-20T00:28:53.600Z,86.20
2017-07-20T00:31:21.928Z,86.90
2017-07-20T00:33:51.115Z,87.80
2017-07-20T00:36:19.595Z,87.80
2017-07-20T00:38:47.928Z,89.10
2017-07-20T00:41:17.025Z,90.20
2017-07-20T00:43:45.366Z,90.10
2017-07-20T00:46:13.654Z,90.70
2017-07-20T00:48:41.996Z,91.30
2017-07-20T00:51:10.376Z,91.80
2017-07-20T00:53:38.778Z,92.10
2017-07-20T00:56:07.159Z,92.20
2017-07-20T00:58:36.345Z,92.60
2017-07-20T01:01:04.663Z,93.00
2017-07-20T01:03:33.054Z,93.60
2017-07-20T01:06:01.368Z,94.20
2017-07-20T01:08:31.480Z,94.40
2017-07-20T01:11:00.485Z,94.40
2017-07-20T01:13:28.872Z,94.60
2017-07-20T01:15:57.254Z,95.00
2017-07-20T01:18:25.665Z,95.20
2017-07-20T01:20:54.872Z,95.40
2017-07-20T01:23:23.242Z,95.10
2017-07-20T01:25:51.544Z,95.10
2017-07-20T01:28:19.870Z,94.90
2017-07-20T01:30:48.224Z,94.70
2017-07-20T01:33:16.620Z,95.00
2017-07-20T01:35:45.012Z,95.00
2017-07-20T01:38:13.509Z,95.20
2017-07-20T01:40:41.790Z,95.10
2017-07-20T01:43:10.170Z,95.30
2017-07-20T01:45:38.566Z,94.80
2017-07-20T01:48:06.874Z,94.60
2017-07-20T01:50:35.986Z,95.20
2017-07-20T01:53:05.043Z,94.80
2017-07-20T01:55:33.366Z,94.70
2017-07-20T01:58:01.756Z,94.90
2017-07-20T02:00:30.056Z,94.10
2017-07-20T02:02:58.380Z,93.90
2017-07-20T02:05:26.677Z,94.30
2017-07-20T02:07:55.021Z,94.20
2017-07-20T02:10:23.419Z,94.30
2017-07-20T02:12:51.699Z,94.30
2017-07-20T02:15:20.033Z,94.50
2017-07-20T02:17:48.374Z,94.60
2017-07-20T02:20:16.655Z,94.30
2017-07-20T02:22:44.993Z,94.60
2017-07-20T02:25:13.353Z,94.10
2017-07-20T02:27:41.730Z,94.40
2017-07-20T02:30:10.127Z,94.40
2017-07-20T02:32:38.452Z,94.60
2017-07-20T02:35:06.810Z,94.60
2017-07-20T02:37:35.205Z,94.60
2017-07-20T02:40:03.599Z,94.30
2017-07-20T02:42:31.986Z,94.30
2017-07-20T02:45:00.275Z,94.50
2017-07-20T02:47:28.641Z,94.60
2017-07-20T02:49:56.931Z,94.30
2017-07-20T02:52:25.238Z,94.40
2017-07-20T02:54:53.568Z,94.70
2017-07-20T02:57:21.873Z,95.30
2017-07-20T02:59:50.209Z,95.10
2017-07-20T03:02:18.611Z,95.20
2017-07-20T03:04:47.685Z,95.00
2017-07-20T03:07:16.008Z,94.90
2017-07-20T03:09:44.388Z,94.90
2017-07-20T03:12:12.727Z,94.90
2017-07-20T03:14:41.077Z,95.40
2017-07-20T03:17:09.435Z,95.60
2017-07-20T03:19:37.763Z,95.50
2017-07-20T03:22:31.862Z,95.20
2017-07-20T03:25:01.743Z,95.10
2017-07-20T03:27:30.169Z,95.10
2017-07-20T03:29:58.497Z,95.20
2017-07-20T03:32:26.853Z,95.60
2017-07-20T03:34:55.179Z,95.90
2017-07-20T03:37:23.499Z,95.80
2017-07-20T03:39:51.831Z,95.70
2017-07-20T03:42:20.928Z,95.80
2017-07-20T03:44:49.411Z,95.80
2017-07-20T03:47:17.803Z,95.80
2017-07-20T03:49:46.108Z,96.30
2017-07-20T03:52:14.435Z,96.10
2017-07-20T03:54:42.735Z,96.10
2017-07-20T03:57:11.036Z,96.00
2017-07-20T03:59:39.364Z,96.20
2017-07-20T04:02:07.735Z,96.20
2017-07-20T04:04:36.056Z,96.10
2017-07-20T04:07:05.116Z,95.90
2017-07-20T04:09:33.544Z,95.90
2017-07-20T04:12:02.607Z,96.00
2017-07-20T04:14:30.938Z,95.60
2017-07-20T04:16:59.227Z,95.90
2017-07-20T04:19:27.519Z,96.00
2017-07-20T04:21:56.628Z,96.30
2017-07-20T04:24:24.925Z,96.20
2017-07-20T04:26:53.983Z,96.70
2017-07-20T04:29:22.392Z,96.30
2017-07-20T04:31:50.721Z,96.10
2017-07-20T04:34:19.820Z,95.80
2017-07-20T04:36:48.920Z,95.40
2017-07-20T04:39:17.207Z,95.50
2017-07-20T04:41:45.631Z,95.40
2017-07-20T04:44:13.928Z,95.20
2017-07-20T04:46:42.211Z,95.40
2017-07-20T04:49:10.560Z,95.50
2017-07-20T04:51:38.890Z,95.10
2017-07-20T04:54:07.249Z,94.80
2017-07-20T04:56:35.538Z,94.80
2017-07-20T04:59:03.860Z,95.10
2017-07-20T05:01:32.179Z,95.40
2017-07-20T05:04:00.517Z,95.00
2017-07-20T05:06:29.716Z,95.00
2017-07-20T05:08:58.115Z,95.30
2017-07-20T05:11:27.214Z,94.40
2017-07-20T05:13:55.595Z,94.40
2017-07-20T05:16:23.920Z,94.40
2017-07-20T05:18:53.009Z,94.70
2017-07-20T05:21:21.316Z,94.60
2017-07-20T05:23:50.416Z,94.60
2017-07-20T05:26:19.507Z,94.60
2017-07-20T05:28:47.900Z,94.60
2017-07-20T05:31:16.219Z,94.10
2017-07-20T05:33:44.515Z,94.50
2017-07-20T05:36:12.812Z,94.30
2017-07-20T05:38:41.146Z,94.10
2017-07-20T05:41:09.431Z,94.30
2017-07-20T05:43:37.850Z,94.10
2017-07-20T05:46:06.942Z,94.50
2017-07-20T05:48:35.335Z,94.40
2017-07-20T05:51:03.683Z,94.20
2017-07-20T05:53:31.981Z,94.40
2017-07-20T05:56:00.313Z,94.50
2017-07-20T05:58:28.644Z,95.00
2017-07-20T06:00:56.930Z,95.00
2017-07-20T06:03:25.267Z,93.50
2017-07-20T06:05:53.592Z,92.70
2017-07-20T06:08:21.957Z,93.60
2017-07-20T06:10:50.285Z,93.50
2017-07-20T06:13:18.642Z,92.90
2017-07-20T06:15:46.965Z,92.10
2017-07-20T06:18:15.260Z,92.70
2017-07-20T06:20:43.588Z,92.40
2017-07-20T06:23:11.927Z,92.40
2017-07-20T06:25:40.255Z,93.00
2017-07-20T06:28:08.576Z,93.50
2017-07-20T06:30:36.878Z,92.50
2017-07-20T06:33:05.974Z,91.90
2017-07-20T06:35:34.354Z,91.80
2017-07-20T06:38:02.652Z,91.50
2017-07-20T06:40:30.998Z,91.10
2017-07-20T06:42:59.283Z,90.30
2017-07-20T06:45:27.666Z,90.40
2017-07-20T06:47:55.999Z,89.80
2017-07-20T06:50:24.495Z,90.00
2017-07-20T06:52:52.791Z,89.10
2017-07-20T06:55:21.115Z,87.00
2017-07-20T06:57:49.482Z,87.80
2017-07-20T07:00:18.596Z,87.60
2017-07-20T07:02:47.669Z,86.40
2017-07-20T07:05:15.956Z,86.40
2017-07-20T07:07:44.362Z,84.30
2017-07-20T07:10:12.744Z,82.60
2017-07-20T07:12:41.900Z,82.70
2017-07-20T07:15:10.947Z,81.40
2017-07-20T07:17:39.366Z,81.40
2017-07-20T07:20:07.764Z,79.70
2017-07-20T07:22:36.079Z,78.60
2017-07-20T07:25:04.371Z,81.00
2017-07-20T07:27:32.723Z,81.40
2017-07-20T07:30:01.019Z,82.30
2017-07-20T07:32:29.412Z,81.20
2017-07-20T07:34:57.747Z,80.20
2017-07-20T07:37:26.049Z,82.60
2017-07-20T07:39:54.384Z,81.60
2017-07-20T07:42:23.841Z,80.40
2017-07-20T07:44:52.192Z,80.30
2017-07-20T07:47:20.600Z,77.20
2017-07-20T07:49:49.689Z,76.30
2017-07-20T07:52:18.016Z,76.30
2017-07-20T07:54:46.349Z,77.30
2017-07-20T07:57:14.651Z,76.10
2017-07-20T07:59:43.052Z,75.80
2017-07-20T08:02:11.381Z,76.80
2017-07-20T08:04:39.757Z,76.10
2017-07-20T08:07:08.125Z,76.00
2017-07-20T08:09:36.596Z,75.50
2017-07-20T08:12:04.928Z,75.90
2017-07-20T08:14:34.112Z,75.20
2017-07-20T08:17:02.450Z,75.10
2017-07-20T08:19:30.794Z,75.30
2017-07-20T08:21:59.174Z,72.60
2017-07-20T08:24:27.577Z,75.00
2017-07-20T08:26:56.051Z,73.30
2017-07-20T08:29:24.451Z,73.20
2017-07-20T08:31:52.746Z,72.20
2017-07-20T08:34:21.139Z,71.50
2017-07-20T08:36:49.436Z,68.90
2017-07-20T08:39:18.527Z,67.20
2017-07-20T08:41:46.856Z,67.00
2017-07-20T08:44:15.163Z,65.50
2017-07-20T08:46:43.503Z,65.30
2017-07-20T08:49:11.795Z,66.50
2017-07-20T08:51:40.194Z,63.70
2017-07-20T08:54:08.663Z,64.80
2017-07-20T08:56:36.967Z,65.00
2017-07-20T08:59:05.301Z,64.00
2017-07-20T09:01:33.656Z,65.40
2017-07-20T09:04:02.765Z,66.40
2017-07-20T09:06:31.155Z,66.30
2017-07-20T09:09:00.361Z,64.90
2017-07-20T09:11:28.739Z,64.80
2017-07-20T09:13:57.130Z,62.80
2017-07-20T09:16:25.428Z,62.10
2017-07-20T09:18:53.749Z,62.80
2017-07-20T09:21:22.063Z,62.80
2017-07-20T09:23:50.386Z,63.10
2017-07-20T09:26:18.792Z,59.60
2017-07-20T09:28:47.170Z,60.00
2017-07-20T09:31:15.473Z,61.40
2017-07-20T09:33:43.863Z,60.90
2017-07-20T09:36:12.251Z,61.80
2017-07-20T09:38:40.653Z,62.30
2017-07-20T09:41:09.036Z,61.50
2017-07-20T09:43:37.341Z,61.30
2017-07-20T09:46:05.697Z,58.70
2017-07-20T09:48:34.108Z,58.40
2017-07-20T09:51:02.494Z,59.90
2017-07-20T09:53:30.888Z,59.20
2017-07-20T09:55:59.190Z,58.70
2017-07-20T09:58:28.396Z,58.80
2017-07-20T10:00:56.781Z,58.10
2017-07-20T10:03:26.799Z,59.20
2017-07-20T10:05:55.103Z,56.60
2017-07-20T10:08:24.117Z,54.80
2017-07-20T10:10:52.441Z,54.40
2017-07-20T10:13:20.733Z,53.80
2017-07-20T10:15:49.648Z,55.70
2017-07-20T10:18:17.985Z,56.30
2017-07-20T10:20:47.330Z,53.10
2017-07-20T10:23:16.469Z,54.40
2017-07-20T10:25:44.760Z,54.40
2017-07-20T10:28:13.075Z,55.30
2017-07-20T10:30:41.362Z,55.30
2017-07-20T10:33:09.750Z,55.40
2017-07-20T10:35:38.044Z,55.00
2017-07-20T10:38:06.366Z,54.90
2017-07-20T10:40:35.420Z,55.30
2017-07-20T10:43:03.840Z,55.40
2017-07-20T10:45:32.196Z,53.60
2017-07-20T10:48:00.499Z,54.80
2017-07-20T10:50:28.805Z,54.60
2017-07-20T10:52:57.197Z,52.10
2017-07-20T10:55:25.487Z,51.90
2017-07-20T10:57:53.789Z,52.10
2017-07-20T11:00:22.881Z,53.80
2017-07-20T11:02:51.167Z,53.20
2017-07-20T11:05:19.475Z,51.40
2017-07-20T11:07:48.562Z,52.70
2017-07-20T11:10:16.842Z,52.10
2017-07-20T11:12:45.138Z,51.00
2017-07-20T11:15:13.455Z,50.90
2017-07-20T11:17:42.513Z,51.30
2017-07-20T11:20:10.822Z,50.60
2017-07-20T11:22:39.094Z,51.10
2017-07-20T11:25:07.506Z,49.20
2017-07-20T11:27:35.898Z,51.70
2017-07-20T11:30:04.301Z,52.70
2017-07-20T11:32:32.696Z,51.60
2017-07-20T11:35:01.087Z,51.50
2017-07-20T11:37:29.358Z,53.40
2017-07-20T11:39:57.764Z,52.10
2017-07-20T11:42:26.048Z,51.20
2017-07-20T11:44:54.359Z,51.70
2017-07-20T11:47:23.809Z,52.60
2017-07-20T11:49:52.125Z,51.90
2017-07-20T11:52:20.466Z,50.90
2017-07-20T11:54:49.544Z,51.40
2017-07-20T11:57:17.861Z,51.40
2017-07-20T11:59:46.944Z,50.00
2017-07-20T12:02:15.227Z,49.90
2017-07-20T12:04:43.557Z,50.40
2017-07-20T12:07:11.872Z,50.20
2017-07-20T12:09:40.156Z,49.60
2017-07-20T12:12:08.472Z,49.70
2017-07-20T12:14:36.764Z,48.50
2017-07-20T12:17:05.076Z,47.80
2017-07-20T12:19:33.460Z,51.00
2017-07-20T12:22:01.959Z,48.40
2017-07-20T12:24:30.240Z,49.10
2017-07-20T12:26:58.514Z,47.70
2017-07-20T12:29:26.906Z,47.30
2017-07-20T12:31:55.312Z,48.10
2017-07-20T12:34:23.703Z,47.80
2017-07-20T12:36:52.082Z,47.20
2017-07-20T12:39:20.368Z,48.90
2017-07-20T12:41:48.762Z,49.90
2017-07-20T12:44:17.158Z,49.50
2017-07-20T12:46:45.455Z,49.70
2017-07-20T12:49:13.852Z,51.30
2017-07-20T12:51:42.243Z,50.80
2017-07-20T12:54:10.732Z,48.10
2017-07-20T12:56:39.042Z,48.10
2017-07-20T12:59:08.215Z,51.20
2017-07-20T13:01:36.641Z,51.20
2017-07-20T13:04:05.737Z,51.10
2017-07-20T13:06:34.047Z,51.70
2017-07-20T13:09:03.124Z,52.70
2017-07-20T13:11:31.629Z,52.70
2017-07-20T13:14:00.012Z,48.60
2017-07-20T13:16:28.409Z,48.70
2017-07-20T13:18:56.804Z,47.90
2017-07-20T13:21:25.188Z,51.00
2017-07-20T13:23:53.571Z,51.20
2017-07-20T13:26:21.875Z,50.00
2017-07-20T13:28:50.255Z,46.80
2017-07-20T13:31:18.648Z,47.20
2017-07-20T13:33:46.936Z,48.40
2017-07-20T13:36:15.228Z,46.90
2017-07-20T13:38:43.561Z,46.30
2017-07-20T13:41:11.912Z,47.40
2017-07-20T13:43:40.346Z,47.40
2017-07-20T13:46:08.688Z,45.10
2017-07-20T13:48:37.168Z,46.80
2017-07-20T13:51:05.526Z,47.40
2017-07-20T13:53:33.886Z,48.10
2017-07-20T13:56:02.926Z,43.70
2017-07-20T13:58:31.247Z,43.70
2017-07-20T14:00:59.527Z,43.30
2017-07-20T14:03:27.857Z,43.70
2017-07-20T14:05:56.960Z,43.20
2017-07-20T14:08:25.454Z,43.20
2017-07-20T14:10:54.538Z,41.80
2017-07-20T14:13:22.822Z,41.80
2017-07-20T14:15:51.164Z,42.20
2017-07-20T14:18:19.484Z,41.40
2017-07-20T14:20:47.754Z,40.80
2017-07-20T14:23:16.096Z,40.10
2017-07-20T14:25:44.496Z,41.80
2017-07-20T14:28:12.866Z,44.00
2017-07-20T14:30:41.152Z,43.50
2017-07-20T14:33:10.470Z,41.50
2017-07-20T14:35:38.771Z,40.60
2017-07-20T14:38:07.160Z,43.80
2017-07-20T14:40:35.542Z,43.00
2017-07-20T14:43:03.828Z,43.40
2017-07-20T14:45:32.103Z,44.70
2017-07-20T14:48:00.607Z,44.60
2017-07-20T14:50:28.907Z,43.50
2017-07-20T14:52:57.304Z,44.40
2017-07-20T14:55:25.780Z,43.60
2017-07-20T14:57:54.069Z,42.00
2017-07-20T15:00:22.356Z,42.20
2017-07-20T15:02:50.872Z,44.20
2017-07-20T15:05:19.150Z,42.40
2017-07-20T15:07:47.553Z,41.80
2017-07-20T15:10:15.872Z,42.00
2017-07-20T15:12:44.241Z,43.00
2017-07-20T15:15:12.716Z,43.60
2017-07-20T15:17:41.000Z,42.10
2017-07-20T15:20:09.289Z,41.00
2017-07-20T15:22:37.610Z,42.50
2017-07-20T15:25:06.691Z,47.00
2017-07-20T15:27:35.179Z,46.70
2017-07-20T15:30:03.480Z,47.40
2017-07-20T15:32:31.871Z,48.10
2017-07-20T15:35:00.159Z,48.90
2017-07-20T15:37:28.457Z,48.90
2017-07-20T15:39:56.777Z,48.80
2017-07-20T15:42:25.068Z,49.40
2017-07-20T15:44:53.400Z,51.60
2017-07-20T15:47:21.710Z,51.40
2017-07-20T15:49:50.100Z,51.80
2017-07-20T15:52:18.492Z,52.00
2017-07-20T15:54:46.842Z,51.60
2017-07-20T15:57:15.359Z,52.40
2017-07-20T15:59:43.759Z,51.80
2017-07-20T16:02:12.091Z,52.10
2017-07-20T16:04:41.139Z,53.90
2017-07-20T16:07:09.431Z,54.00
2017-07-20T16:09:37.791Z,54.10
2017-07-20T16:12:06.127Z,54.50
2017-07-20T16:14:34.532Z,55.60
2017-07-20T16:17:02.925Z,55.00
2017-07-20T16:19:31.214Z,55.80
2017-07-20T16:21:59.515Z,55.90
2017-07-20T16:24:27.875Z,55.90
2017-07-20T16:26:56.281Z,57.80
2017-07-20T16:29:24.659Z,57.50
2017-07-20T16:31:52.978Z,57.80
2017-07-20T16:34:22.158Z,58.20
2017-07-20T16:36:50.545Z,58.10
2017-07-20T16:39:18.952Z,58.70
2017-07-20T16:41:47.231Z,59.30
2017-07-20T16:44:15.516Z,60.20
2017-07-20T16:46:43.832Z,61.30
2017-07-20T16:49:12.912Z,63.30
2017-07-20T16:51:41.316Z,62.80
2017-07-20T16:54:09.599Z,64.30
2017-07-20T16:56:37.988Z,64.00
2017-07-20T16:59:06.267Z,64.70
2017-07-20T17:01:34.557Z,63.90
2017-07-20T17:04:02.882Z,63.60
2017-07-20T17:06:31.966Z,65.00
2017-07-20T17:09:00.450Z,64.80
2017-07-20T17:11:28.751Z,64.20
2017-07-20T17:13:57.138Z,65.20
2017-07-20T17:16:25.422Z,65.10
2017-07-20T17:18:53.824Z,65.20
2017-07-20T17:21:22.103Z,66.30
2017-07-20T17:23:50.490Z,65.80
2017-07-20T17:26:18.891Z,65.90
2017-07-20T17:28:47.184Z,66.60
2017-07-20T17:31:15.496Z,66.40
2017-07-20T17:33:44.584Z,66.80
2017-07-20T17:36:12.872Z,66.80
2017-07-20T17:38:41.272Z,66.80
2017-07-20T17:41:09.657Z,67.50
2017-07-20T17:43:37.934Z,67.60
2017-07-20T17:46:06.252Z,68.10
2017-07-20T17:48:35.326Z,70.40
2017-07-20T17:51:03.622Z,69.60
2017-07-20T17:53:32.036Z,71.90
2017-07-20T17:56:00.438Z,73.20
2017-07-20T17:58:29.492Z,74.20
2017-07-20T18:00:57.808Z,74.20
2017-07-20T18:03:26.118Z,75.20
2017-07-20T18:05:55.298Z,77.20
2017-07-20T18:08:23.595Z,77.20
2017-07-20T18:10:51.878Z,77.80
2017-07-20T18:13:20.286Z,78.50
2017-07-20T18:15:48.662Z,79.20
2017-07-20T18:18:17.068Z,79.80
2017-07-20T18:20:45.456Z,80.80
2017-07-20T18:23:13.775Z,81.20
2017-07-20T18:25:42.090Z,81.20
2017-07-20T18:28:10.420Z,81.70
2017-07-20T18:30:38.708Z,80.60
2017-07-20T18:33:07.095Z,76.40
2017-07-20T18:35:35.432Z,76.60
2017-07-20T18:38:03.797Z,74.00
2017-07-20T18:40:32.882Z,73.40
2017-07-20T18:43:01.200Z,73.40
2017-07-20T18:45:30.300Z,72.10
2017-07-20T18:47:59.359Z,73.10
2017-07-20T18:50:27.682Z,72.30
2017-07-20T18:52:55.988Z,72.10
2017-07-20T18:55:25.075Z,71.90
2017-07-20T18:57:53.413Z,71.90
2017-07-20T19:00:21.720Z,72.00
2017-07-20T19:02:49.994Z,73.20
2017-07-20T19:05:18.310Z,72.50
2017-07-20T19:07:46.694Z,72.80
2017-07-20T19:10:15.115Z,73.10
2017-07-20T19:12:43.436Z,73.40
2017-07-20T19:15:11.818Z,73.10
2017-07-20T19:17:40.100Z,72.80
2017-07-20T19:20:08.417Z,73.40
2017-07-20T19:22:36.767Z,73.60
2017-07-20T19:25:05.157Z,74.90
2017-07-20T19:27:33.454Z,74.20
2017-07-20T19:30:01.880Z,74.90
2017-07-20T19:32:30.228Z,74.30
2017-07-20T19:34:58.521Z,75.10
2017-07-20T19:37:26.916Z,75.20
2017-07-20T19:39:55.194Z,75.20
2017-07-20T19:42:23.487Z,75.50
2017-07-20T19:44:51.791Z,76.10
2017-07-20T19:47:20.074Z,76.20
2017-07-20T19:49:48.573Z,76.40
2017-07-20T19:52:16.864Z,76.70
2017-07-20T19:54:45.148Z,77.10
2017-07-20T19:57:13.481Z,77.00
2017-07-20T19:59:41.798Z,77.60
2017-07-20T20:02:10.096Z,77.60
2017-07-20T20:04:38.404Z,77.70
2017-07-20T20:07:06.714Z,77.90
2017-07-20T20:09:35.762Z,78.70
2017-07-20T20:12:04.068Z,78.70
2017-07-20T20:14:32.385Z,79.20
2017-07-20T20:17:00.667Z,79.70
2017-07-20T20:19:28.975Z,81.20
2017-07-20T20:21:58.334Z,82.40
2017-07-20T20:24:27.056Z,82.30
2017-07-20T20:26:55.451Z,82.90
2017-07-20T20:29:23.843Z,83.40
2017-07-20T20:31:52.158Z,85.20
2017-07-20T20:34:21.247Z,85.80
2017-07-20T20:36:49.650Z,85.80
2017-07-20T20:39:18.856Z,84.90
2017-07-20T20:41:47.195Z,84.80
2017-07-20T20:44:15.480Z,84.20
2017-07-20T20:46:43.759Z,84.60
2017-07-20T20:49:12.259Z,81.50
2017-07-20T20:51:40.547Z,81.80
2017-07-20T20:54:08.831Z,81.70
2017-07-20T20:56:37.196Z,81.20
2017-07-20T20:59:06.291Z,80.50
2017-07-20T21:01:34.633Z,80.20
2017-07-20T21:04:02.972Z,78.60
2017-07-20T21:06:31.366Z,79.30
2017-07-20T21:08:59.674Z,78.00
2017-07-20T21:11:28.741Z,78.30
2017-07-20T21:13:57.194Z,78.30
2017-07-20T21:16:25.762Z,78.50
2017-07-20T21:18:55.046Z,78.00
2017-07-20T21:21:23.597Z,77.80
2017-07-20T21:23:51.924Z,78.90
2017-07-20T21:26:20.240Z,80.60
2017-07-20T21:28:48.547Z,81.30
2017-07-20T21:31:17.608Z,81.90
2017-07-20T21:33:45.910Z,81.80
2017-07-20T21:36:14.310Z,82.00
2017-07-20T21:38:42.981Z,81.60
2017-07-20T21:41:11.270Z,82.30
2017-07-20T21:43:39.654Z,82.30
2017-07-20T21:46:07.960Z,81.90
2017-07-20T21:48:36.285Z,82.60
2017-07-20T21:51:04.584Z,82.80
2017-07-20T21:53:32.955Z,83.30
2017-07-20T21:56:01.456Z,83.20
2017-07-20T21:58:29.752Z,82.80
2017-07-20T22:00:58.845Z,85.40
2017-07-20T22:03:27.136Z,84.70
2017-07-20T22:05:55.456Z,85.30
2017-07-20T22:08:24.508Z,86.90
2017-07-20T22:10:52.916Z,86.90
2017-07-20T22:13:21.212Z,87.00
2017-07-20T22:15:49.496Z,87.50
2017-07-20T22:18:17.812Z,87.80
2017-07-20T22:20:46.900Z,87.70
2017-07-20T22:23:15.227Z,87.60
2017-07-20T22:25:43.573Z,87.40
2017-07-20T22:28:11.967Z,87.80
2017-07-20T22:30:40.265Z,88.10
2017-07-20T22:33:08.553Z,87.90
2017-07-20T22:35:36.944Z,88.20
2017-07-20T22:38:05.340Z,89.00
2017-07-20T22:40:33.725Z,89.50
2017-07-20T22:43:02.012Z,89.70
2017-07-20T22:45:30.298Z,90.00
2017-07-20T22:47:58.687Z,90.10
2017-07-20T22:50:27.088Z,90.20
2017-07-20T22:52:55.374Z,90.20
2017-07-20T22:55:23.659Z,90.40
2017-07-20T22:57:51.993Z,90.40
2017-07-20T23:00:20.307Z,90.50
2017-07-20T23:02:48.699Z,90.70
2017-07-20T23:05:17.019Z,90.80
2017-07-20T23:07:45.416Z,90.80
2017-07-20T23:10:13.743Z,90.90
2017-07-20T23:12:42.058Z,91.00
2017-07-20T23:15:10.378Z,91.30
2017-07-20T23:17:38.708Z,91.20
2017-07-20T23:20:07.004Z,91.50
2017-07-20T23:22:35.332Z,91.60
2017-07-20T23:25:03.648Z,91.60
2017-07-20T23:27:32.041Z,91.70
2017-07-20T23:30:01.105Z,92.00
2017-07-20T23:32:29.434Z,91.70
2017-07-20T23:34:57.815Z,91.90
2017-07-20T23:37:26.218Z,91.90
2017-07-20T23:39:54.541Z,91.80
2017-07-20T23:42:22.884Z,91.90
2017-07-20T23:44:51.197Z,91.90
2017-07-20T23:47:20.268Z,91.80
2017-07-20T23:49:48.674Z,91.80
2017-07-20T23:52:16.998Z,92.00
2017-07-20T23:54:45.364Z,92.10
2017-07-20T23:57:13.704Z,92.20
2017-07-20T23:59:41.986Z,92.00
